sensor_id;sensor_type;location;lat;lon;timestamp;temperature;humidity
46309;DHT22;32037;50.820;6.494;2024-03-02T00:01:26;9.80;99.90
46309;DHT22;32037;50.820;6.494;2024-03-02T00:03:54;9.80;99.90
46309;DHT22;32037;50.820;6.494;2024-03-02T00:06:22;9.90;99.90
46309;DHT22;32037;50.820;6.494;2024-03-02T00:08:58;9.90;99.90
46309;DHT22;32037;50.820;6.494;2024-03-02T00:11:26;9.80;99.90
46309;DHT22;32037;50.820;6.494;2024-03-02T00:13:55;9.90;99.90
46309;DHT22;32037;50.820;6.494;2024-03-02T00:16:30;9.80;99.90
46309;DHT22;32037;50.820;6.494;2024-03-02T00:19:01;9.80;99.90
46309;DHT22;32037;50.820;6.494;2024-03-02T00:21:31;9.80;99.90
46309;DHT22;32037;50.820;6.494;2024-03-02T00:24:00;9.80;99.90
46309;DHT22;32037;50.820;6.494;2024-03-02T00:26:30;9.80;99.90
46309;DHT22;32037;50.820;6.494;2024-03-02T00:29:00;9.80;99.90
46309;DHT22;32037;50.820;6.494;2024-03-02T00:31:32;9.80;99.90
46309;DHT22;32037;50.820;6.494;2024-03-02T00:34:01;9.80;99.90
46309;DHT22;32037;50.820;6.494;2024-03-02T00:36:33;9.80;99.90
46309;DHT22;32037;50.820;6.494;2024-03-02T00:39:03;9.80;99.90
46309;DHT22;32037;50.820;6.494;2024-03-02T00:41:35;9.80;99.90
46309;DHT22;32037;50.820;6.494;2024-03-02T00:44:05;9.80;99.90
46309;DHT22;32037;50.820;6.494;2024-03-02T00:46:38;9.90;99.90
46309;DHT22;32037;50.820;6.494;2024-03-02T00:49:12;9.80;99.90
46309;DHT22;32037;50.820;6.494;2024-03-02T00:51:47;9.80;99.90
46309;DHT22;32037;50.820;6.494;2024-03-02T00:54:19;9.80;99.90
46309;DHT22;32037;50.820;6.494;2024-03-02T00:56:47;9.80;99.90
46309;DHT22;32037;50.820;6.494;2024-03-02T00:59:16;9.80;99.90
46309;DHT22;32037;50.820;6.494;2024-03-02T01:01:47;9.80;99.90
46309;DHT22;32037;50.820;6.494;2024-03-02T01:04:16;9.80;99.90
46309;DHT22;32037;50.820;6.494;2024-03-02T01:06:45;9.80;99.90
46309;DHT22;32037;50.820;6.494;2024-03-02T01:09:14;9.80;99.90
46309;DHT22;32037;50.820;6.494;2024-03-02T01:11:45;9.80;99.90
46309;DHT22;32037;50.820;6.494;2024-03-02T01:14:14;9.80;99.90
46309;DHT22;32037;50.820;6.494;2024-03-02T01:16:43;9.80;99.90
46309;DHT22;32037;50.820;6.494;2024-03-02T01:19:12;9.80;99.90
46309;DHT22;32037;50.820;6.494;2024-03-02T01:21:41;9.80;99.90
46309;DHT22;32037;50.820;6.494;2024-03-02T01:24:10;9.80;99.90
46309;DHT22;32037;50.820;6.494;2024-03-02T01:26:41;9.80;99.90
46309;DHT22;32037;50.820;6.494;2024-03-02T01:29:09;9.80;99.90
46309;DHT22;32037;50.820;6.494;2024-03-02T01:31:40;9.80;99.90
46309;DHT22;32037;50.820;6.494;2024-03-02T01:34:10;9.80;99.90
46309;DHT22;32037;50.820;6.494;2024-03-02T01:36:42;9.80;99.90
46309;DHT22;32037;50.820;6.494;2024-03-02T01:39:11;9.80;99.90
46309;DHT22;32037;50.820;6.494;2024-03-02T01:41:41;9.80;99.90
46309;DHT22;32037;50.820;6.494;2024-03-02T01:44:11;9.80;99.90
46309;DHT22;32037;50.820;6.494;2024-03-02T01:46:39;9.80;99.90
46309;DHT22;32037;50.820;6.494;2024-03-02T01:49:08;9.80;99.90
46309;DHT22;32037;50.820;6.494;2024-03-02T01:51:37;9.80;99.90
46309;DHT22;32037;50.820;6.494;2024-03-02T01:54:07;9.80;99.90
46309;DHT22;32037;50.820;6.494;2024-03-02T01:56:35;9.80;99.90
46309;DHT22;32037;50.820;6.494;2024-03-02T01:59:04;9.80;99.90
46309;DHT22;32037;50.820;6.494;2024-03-02T02:01:33;9.80;99.90
46309;DHT22;32037;50.820;6.494;2024-03-02T02:04:01;9.80;99.90
46309;DHT22;32037;50.820;6.494;2024-03-02T02:06:29;9.80;99.90
46309;DHT22;32037;50.820;6.494;2024-03-02T02:08:57;9.80;99.90
46309;DHT22;32037;50.820;6.494;2024-03-02T02:11:27;9.80;99.90
46309;DHT22;32037;50.820;6.494;2024-03-02T02:13:56;9.80;99.90
46309;DHT22;32037;50.820;6.494;2024-03-02T02:16:25;9.80;99.90
46309;DHT22;32037;50.820;6.494;2024-03-02T02:18:54;9.80;99.90
46309;DHT22;32037;50.820;6.494;2024-03-02T02:21:24;9.80;99.90
46309;DHT22;32037;50.820;6.494;2024-03-02T02:23:55;9.80;99.90
46309;DHT22;32037;50.820;6.494;2024-03-02T02:26:25;9.80;99.90
46309;DHT22;32037;50.820;6.494;2024-03-02T02:28:55;9.80;99.90
46309;DHT22;32037;50.820;6.494;2024-03-02T02:31:26;9.80;99.90
46309;DHT22;32037;50.820;6.494;2024-03-02T02:33:55;9.80;99.90
46309;DHT22;32037;50.820;6.494;2024-03-02T02:36:27;9.80;99.90
46309;DHT22;32037;50.820;6.494;2024-03-02T02:38:56;9.80;99.90
46309;DHT22;32037;50.820;6.494;2024-03-02T02:41:25;9.80;99.90
46309;DHT22;32037;50.820;6.494;2024-03-02T02:43:55;9.80;99.90
46309;DHT22;32037;50.820;6.494;2024-03-02T02:46:24;9.80;99.90
46309;DHT22;32037;50.820;6.494;2024-03-02T02:48:55;9.80;99.90
46309;DHT22;32037;50.820;6.494;2024-03-02T02:51:27;9.80;99.90
46309;DHT22;32037;50.820;6.494;2024-03-02T02:53:55;9.80;99.90
46309;DHT22;32037;50.820;6.494;2024-03-02T02:56:25;9.80;99.90
46309;DHT22;32037;50.820;6.494;2024-03-02T02:58:55;9.80;99.90
46309;DHT22;32037;50.820;6.494;2024-03-02T03:01:24;9.80;99.90
46309;DHT22;32037;50.820;6.494;2024-03-02T03:03:56;9.80;99.90
46309;DHT22;32037;50.820;6.494;2024-03-02T03:06:24;9.80;99.90
46309;DHT22;32037;50.820;6.494;2024-03-02T03:08:57;9.80;99.90
46309;DHT22;32037;50.820;6.494;2024-03-02T03:11:26;9.80;99.90
46309;DHT22;32037;50.820;6.494;2024-03-02T03:13:55;9.80;99.90
46309;DHT22;32037;50.820;6.494;2024-03-02T03:16:24;9.80;99.90
46309;DHT22;32037;50.820;6.494;2024-03-02T03:18:55;9.80;99.90
46309;DHT22;32037;50.820;6.494;2024-03-02T03:21:25;9.80;99.90
46309;DHT22;32037;50.820;6.494;2024-03-02T03:23:54;9.80;99.90
46309;DHT22;32037;50.820;6.494;2024-03-02T03:26:27;9.80;99.90
46309;DHT22;32037;50.820;6.494;2024-03-02T03:28:56;9.70;99.90
46309;DHT22;32037;50.820;6.494;2024-03-02T03:31:26;9.80;99.90
46309;DHT22;32037;50.820;6.494;2024-03-02T03:33:55;9.80;99.90
46309;DHT22;32037;50.820;6.494;2024-03-02T03:36:25;9.80;99.90
46309;DHT22;32037;50.820;6.494;2024-03-02T03:38:54;9.80;99.90
46309;DHT22;32037;50.820;6.494;2024-03-02T03:41:23;9.80;99.90
46309;DHT22;32037;50.820;6.494;2024-03-02T03:43:54;9.70;99.90
46309;DHT22;32037;50.820;6.494;2024-03-02T03:46:25;9.70;99.90
46309;DHT22;32037;50.820;6.494;2024-03-02T03:48:55;9.70;99.90
46309;DHT22;32037;50.820;6.494;2024-03-02T03:51:24;9.70;99.90
46309;DHT22;32037;50.820;6.494;2024-03-02T03:53:52;9.70;99.90
46309;DHT22;32037;50.820;6.494;2024-03-02T03:56:24;9.80;99.90
46309;DHT22;32037;50.820;6.494;2024-03-02T03:58:57;9.80;99.90
46309;DHT22;32037;50.820;6.494;2024-03-02T04:01:26;9.80;99.90
46309;DHT22;32037;50.820;6.494;2024-03-02T04:03:55;9.70;99.90
46309;DHT22;32037;50.820;6.494;2024-03-02T04:06:25;9.70;99.90
46309;DHT22;32037;50.820;6.494;2024-03-02T04:08:55;9.70;99.90
46309;DHT22;32037;50.820;6.494;2024-03-02T04:11:26;9.70;99.90
46309;DHT22;32037;50.820;6.494;2024-03-02T04:13:54;9.70;99.90
46309;DHT22;32037;50.820;6.494;2024-03-02T04:16:27;9.70;99.90
46309;DHT22;32037;50.820;6.494;2024-03-02T04:18:55;9.70;99.90
46309;DHT22;32037;50.820;6.494;2024-03-02T04:21:24;9.70;99.90
46309;DHT22;32037;50.820;6.494;2024-03-02T04:23:53;9.70;99.90
46309;DHT22;32037;50.820;6.494;2024-03-02T04:26:25;9.70;99.90
46309;DHT22;32037;50.820;6.494;2024-03-02T04:28:54;9.70;99.90
46309;DHT22;32037;50.820;6.494;2024-03-02T04:31:27;9.70;99.90
46309;DHT22;32037;50.820;6.494;2024-03-02T04:33:56;9.70;99.90
46309;DHT22;32037;50.820;6.494;2024-03-02T04:36:26;9.70;99.90
46309;DHT22;32037;50.820;6.494;2024-03-02T04:38:54;9.70;99.90
46309;DHT22;32037;50.820;6.494;2024-03-02T04:41:25;9.70;99.90
46309;DHT22;32037;50.820;6.494;2024-03-02T04:43:53;9.70;99.90
46309;DHT22;32037;50.820;6.494;2024-03-02T04:46:24;9.70;99.90
46309;DHT22;32037;50.820;6.494;2024-03-02T04:48:55;9.70;99.90
46309;DHT22;32037;50.820;6.494;2024-03-02T04:51:25;9.70;99.90
46309;DHT22;32037;50.820;6.494;2024-03-02T04:53:55;9.60;99.90
46309;DHT22;32037;50.820;6.494;2024-03-02T04:56:25;9.70;99.90
46309;DHT22;32037;50.820;6.494;2024-03-02T04:59:17;9.70;99.90
46309;DHT22;32037;50.820;6.494;2024-03-02T05:01:45;9.70;99.90
46309;DHT22;32037;50.820;6.494;2024-03-02T05:04:16;9.60;99.90
46309;DHT22;32037;50.820;6.494;2024-03-02T05:06:45;9.70;99.90
46309;DHT22;32037;50.820;6.494;2024-03-02T05:09:19;9.60;99.90
46309;DHT22;32037;50.820;6.494;2024-03-02T05:11:49;9.60;99.90
46309;DHT22;32037;50.820;6.494;2024-03-02T05:14:36;9.70;99.90
46309;DHT22;32037;50.820;6.494;2024-03-02T05:17:05;9.60;99.90
46309;DHT22;32037;50.820;6.494;2024-03-02T05:19:37;9.60;99.90
46309;DHT22;32037;50.820;6.494;2024-03-02T05:22:06;9.60;99.90
46309;DHT22;32037;50.820;6.494;2024-03-02T05:24:36;9.60;99.90
46309;DHT22;32037;50.820;6.494;2024-03-02T05:27:06;9.60;99.90
46309;DHT22;32037;50.820;6.494;2024-03-02T05:29:36;9.60;99.90
46309;DHT22;32037;50.820;6.494;2024-03-02T05:32:04;9.60;99.90
46309;DHT22;32037;50.820;6.494;2024-03-02T05:34:33;9.60;99.90
46309;DHT22;32037;50.820;6.494;2024-03-02T05:37:07;9.60;99.90
46309;DHT22;32037;50.820;6.494;2024-03-02T05:39:35;9.60;99.90
46309;DHT22;32037;50.820;6.494;2024-03-02T05:42:04;9.60;99.90
46309;DHT22;32037;50.820;6.494;2024-03-02T05:44:33;9.60;99.90
46309;DHT22;32037;50.820;6.494;2024-03-02T05:47:05;9.60;99.90
46309;DHT22;32037;50.820;6.494;2024-03-02T05:49:36;9.60;99.90
46309;DHT22;32037;50.820;6.494;2024-03-02T05:52:06;9.60;99.90
46309;DHT22;32037;50.820;6.494;2024-03-02T05:54:35;9.60;99.90
46309;DHT22;32037;50.820;6.494;2024-03-02T05:57:05;9.60;99.90
46309;DHT22;32037;50.820;6.494;2024-03-02T05:59:56;9.60;99.90
46309;DHT22;32037;50.820;6.494;2024-03-02T06:02:24;9.60;99.90
46309;DHT22;32037;50.820;6.494;2024-03-02T06:04:55;9.60;99.90
46309;DHT22;32037;50.820;6.494;2024-03-02T06:07:27;9.60;99.90
46309;DHT22;32037;50.820;6.494;2024-03-02T06:09:55;9.60;99.90
46309;DHT22;32037;50.820;6.494;2024-03-02T06:12:23;9.60;99.90
46309;DHT22;32037;50.820;6.494;2024-03-02T06:14:53;9.60;99.90
46309;DHT22;32037;50.820;6.494;2024-03-02T06:17:24;9.60;99.90
46309;DHT22;32037;50.820;6.494;2024-03-02T06:19:53;9.60;99.90
46309;DHT22;32037;50.820;6.494;2024-03-02T06:22:21;9.50;99.90
46309;DHT22;32037;50.820;6.494;2024-03-02T06:24:54;9.60;99.90
46309;DHT22;32037;50.820;6.494;2024-03-02T06:27:24;9.60;99.90
46309;DHT22;32037;50.820;6.494;2024-03-02T06:29:55;9.60;99.90
46309;DHT22;32037;50.820;6.494;2024-03-02T06:32:26;9.60;99.90
46309;DHT22;32037;50.820;6.494;2024-03-02T06:34:56;9.50;99.90
46309;DHT22;32037;50.820;6.494;2024-03-02T06:37:25;9.60;99.90
46309;DHT22;32037;50.820;6.494;2024-03-02T06:39:54;9.60;99.90
46309;DHT22;32037;50.820;6.494;2024-03-02T06:42:22;9.60;99.90
46309;DHT22;32037;50.820;6.494;2024-03-02T06:44:54;9.60;99.90
46309;DHT22;32037;50.820;6.494;2024-03-02T06:47:25;9.50;99.90
46309;DHT22;32037;50.820;6.494;2024-03-02T06:49:53;9.60;99.90
46309;DHT22;32037;50.820;6.494;2024-03-02T06:52:24;9.50;99.90
46309;DHT22;32037;50.820;6.494;2024-03-02T06:54:54;9.50;99.90
46309;DHT22;32037;50.820;6.494;2024-03-02T06:57:22;9.60;99.90
46309;DHT22;32037;50.820;6.494;2024-03-02T06:59:51;9.50;99.90
46309;DHT22;32037;50.820;6.494;2024-03-02T07:02:21;9.60;99.90
46309;DHT22;32037;50.820;6.494;2024-03-02T07:04:52;9.50;99.90
46309;DHT22;32037;50.820;6.494;2024-03-02T07:07:21;9.60;99.90
46309;DHT22;32037;50.820;6.494;2024-03-02T07:09:50;9.60;99.90
46309;DHT22;32037;50.820;6.494;2024-03-02T07:12:20;9.60;99.90
46309;DHT22;32037;50.820;6.494;2024-03-02T07:14:49;9.50;99.90
46309;DHT22;32037;50.820;6.494;2024-03-02T07:17:38;9.50;99.90
46309;DHT22;32037;50.820;6.494;2024-03-02T07:20:07;9.60;99.90
46309;DHT22;32037;50.820;6.494;2024-03-02T07:22:35;9.50;99.90
46309;DHT22;32037;50.820;6.494;2024-03-02T07:25:08;9.50;99.90
46309;DHT22;32037;50.820;6.494;2024-03-02T07:27:57;9.50;99.90
46309;DHT22;32037;50.820;6.494;2024-03-02T07:30:26;9.60;99.90
46309;DHT22;32037;50.820;6.494;2024-03-02T07:32:56;9.60;99.90
46309;DHT22;32037;50.820;6.494;2024-03-02T07:35:25;9.60;99.90
46309;DHT22;32037;50.820;6.494;2024-03-02T07:37:54;9.50;99.90
46309;DHT22;32037;50.820;6.494;2024-03-02T07:40:23;9.50;99.90
46309;DHT22;32037;50.820;6.494;2024-03-02T07:42:52;9.60;99.90
46309;DHT22;32037;50.820;6.494;2024-03-02T07:45:22;9.60;99.90
46309;DHT22;32037;50.820;6.494;2024-03-02T07:47:52;9.60;99.90
46309;DHT22;32037;50.820;6.494;2024-03-02T07:50:23;9.60;99.90
46309;DHT22;32037;50.820;6.494;2024-03-02T07:52:51;9.50;99.90
46309;DHT22;32037;50.820;6.494;2024-03-02T07:55:19;9.50;99.90
46309;DHT22;32037;50.820;6.494;2024-03-02T07:57:48;9.60;99.90
46309;DHT22;32037;50.820;6.494;2024-03-02T08:00:19;9.60;99.90
46309;DHT22;32037;50.820;6.494;2024-03-02T08:02:50;9.60;99.90
46309;DHT22;32037;50.820;6.494;2024-03-02T08:05:19;9.50;99.90
46309;DHT22;32037;50.820;6.494;2024-03-02T08:07:48;9.50;99.90
46309;DHT22;32037;50.820;6.494;2024-03-02T08:10:22;9.50;99.90
46309;DHT22;32037;50.820;6.494;2024-03-02T08:12:54;9.50;99.90
46309;DHT22;32037;50.820;6.494;2024-03-02T08:15:23;9.50;99.90
46309;DHT22;32037;50.820;6.494;2024-03-02T08:17:56;9.50;99.90
46309;DHT22;32037;50.820;6.494;2024-03-02T08:20:25;9.50;99.90
46309;DHT22;32037;50.820;6.494;2024-03-02T08:22:56;9.50;99.90
46309;DHT22;32037;50.820;6.494;2024-03-02T08:25:26;9.60;99.90
46309;DHT22;32037;50.820;6.494;2024-03-02T08:27:55;9.60;99.90
46309;DHT22;32037;50.820;6.494;2024-03-02T08:30:24;9.50;99.90
46309;DHT22;32037;50.820;6.494;2024-03-02T08:32:52;9.50;99.90
46309;DHT22;32037;50.820;6.494;2024-03-02T08:35:21;9.50;99.90
46309;DHT22;32037;50.820;6.494;2024-03-02T08:37:53;9.60;99.90
46309;DHT22;32037;50.820;6.494;2024-03-02T08:40:22;9.60;99.90
46309;DHT22;32037;50.820;6.494;2024-03-02T08:42:51;9.60;99.90
46309;DHT22;32037;50.820;6.494;2024-03-02T08:45:20;9.60;99.90
46309;DHT22;32037;50.820;6.494;2024-03-02T08:47:49;9.60;99.90
46309;DHT22;32037;50.820;6.494;2024-03-02T08:50:18;9.60;99.90
46309;DHT22;32037;50.820;6.494;2024-03-02T08:52:47;9.60;99.90
46309;DHT22;32037;50.820;6.494;2024-03-02T08:55:16;9.60;99.90
46309;DHT22;32037;50.820;6.494;2024-03-02T08:57:45;9.60;99.90
46309;DHT22;32037;50.820;6.494;2024-03-02T09:00:14;9.60;99.90
46309;DHT22;32037;50.820;6.494;2024-03-02T09:02:44;9.60;99.90
46309;DHT22;32037;50.820;6.494;2024-03-02T09:05:12;9.60;99.90
46309;DHT22;32037;50.820;6.494;2024-03-02T09:07:41;9.60;99.90
46309;DHT22;32037;50.820;6.494;2024-03-02T09:10:12;9.60;99.90
46309;DHT22;32037;50.820;6.494;2024-03-02T09:12:41;9.60;99.90
46309;DHT22;32037;50.820;6.494;2024-03-02T09:15:09;9.70;99.90
46309;DHT22;32037;50.820;6.494;2024-03-02T09:17:41;9.60;99.90
46309;DHT22;32037;50.820;6.494;2024-03-02T09:20:11;9.70;99.90
46309;DHT22;32037;50.820;6.494;2024-03-02T09:22:41;9.70;99.90
46309;DHT22;32037;50.820;6.494;2024-03-02T09:25:12;9.70;99.90
46309;DHT22;32037;50.820;6.494;2024-03-02T09:27:41;9.70;99.90
46309;DHT22;32037;50.820;6.494;2024-03-02T09:30:10;9.70;99.90
46309;DHT22;32037;50.820;6.494;2024-03-02T09:32:39;9.70;99.90
46309;DHT22;32037;50.820;6.494;2024-03-02T09:35:07;9.70;99.90
46309;DHT22;32037;50.820;6.494;2024-03-02T09:37:36;9.70;99.90
46309;DHT22;32037;50.820;6.494;2024-03-02T09:40:05;9.70;99.90
46309;DHT22;32037;50.820;6.494;2024-03-02T09:42:36;9.70;99.90
46309;DHT22;32037;50.820;6.494;2024-03-02T09:45:06;9.70;99.90
46309;DHT22;32037;50.820;6.494;2024-03-02T09:47:34;9.70;99.90
46309;DHT22;32037;50.820;6.494;2024-03-02T09:50:04;9.80;99.90
46309;DHT22;32037;50.820;6.494;2024-03-02T09:52:33;9.80;99.90
46309;DHT22;32037;50.820;6.494;2024-03-02T09:55:03;9.80;99.90
46309;DHT22;32037;50.820;6.494;2024-03-02T09:57:33;9.80;99.90
46309;DHT22;32037;50.820;6.494;2024-03-02T10:00:07;9.80;99.90
46309;DHT22;32037;50.820;6.494;2024-03-02T10:02:36;9.80;99.90
46309;DHT22;32037;50.820;6.494;2024-03-02T10:05:04;9.80;99.90
46309;DHT22;32037;50.820;6.494;2024-03-02T10:07:32;9.80;99.90
46309;DHT22;32037;50.820;6.494;2024-03-02T10:10:12;9.80;99.90
46309;DHT22;32037;50.820;6.494;2024-03-02T10:12:41;9.80;99.90
46309;DHT22;32037;50.820;6.494;2024-03-02T10:15:11;9.80;99.90
46309;DHT22;32037;50.820;6.494;2024-03-02T10:17:39;9.80;99.90
46309;DHT22;32037;50.820;6.494;2024-03-02T10:20:23;9.90;99.90
46309;DHT22;32037;50.820;6.494;2024-03-02T10:22:52;10.00;99.90
46309;DHT22;32037;50.820;6.494;2024-03-02T10:25:31;10.10;99.90
46309;DHT22;32037;50.820;6.494;2024-03-02T10:28:16;10.10;99.90
46309;DHT22;32037;50.820;6.494;2024-03-02T10:30:48;10.20;99.90
46309;DHT22;32037;50.820;6.494;2024-03-02T10:33:21;10.20;99.90
46309;DHT22;32037;50.820;6.494;2024-03-02T10:35:50;10.20;99.90
46309;DHT22;32037;50.820;6.494;2024-03-02T10:38:18;10.20;99.90
46309;DHT22;32037;50.820;6.494;2024-03-02T10:40:48;10.30;99.90
46309;DHT22;32037;50.820;6.494;2024-03-02T10:43:19;10.30;99.90
46309;DHT22;32037;50.820;6.494;2024-03-02T10:45:54;10.30;99.90
46309;DHT22;32037;50.820;6.494;2024-03-02T10:48:26;10.30;99.90
46309;DHT22;32037;50.820;6.494;2024-03-02T10:50:56;10.30;99.90
46309;DHT22;32037;50.820;6.494;2024-03-02T10:53:30;10.30;99.90
46309;DHT22;32037;50.820;6.494;2024-03-02T10:56:00;10.30;99.90
46309;DHT22;32037;50.820;6.494;2024-03-02T10:58:32;10.40;99.90
46309;DHT22;32037;50.820;6.494;2024-03-02T11:01:03;10.40;99.90
46309;DHT22;32037;50.820;6.494;2024-03-02T11:03:35;10.40;99.90
46309;DHT22;32037;50.820;6.494;2024-03-02T11:06:07;10.40;99.90
46309;DHT22;32037;50.820;6.494;2024-03-02T11:08:41;10.40;99.90
46309;DHT22;32037;50.820;6.494;2024-03-02T11:11:15;10.40;99.90
46309;DHT22;32037;50.820;6.494;2024-03-02T11:13:50;10.40;99.90
46309;DHT22;32037;50.820;6.494;2024-03-02T11:16:30;10.40;99.90
46309;DHT22;32037;50.820;6.494;2024-03-02T11:19:05;10.40;99.90
46309;DHT22;32037;50.820;6.494;2024-03-02T11:21:34;10.50;99.90
46309;DHT22;32037;50.820;6.494;2024-03-02T11:24:31;10.50;99.90
46309;DHT22;32037;50.820;6.494;2024-03-02T11:27:06;10.60;99.90
46309;DHT22;32037;50.820;6.494;2024-03-02T11:29:47;10.60;99.90
46309;DHT22;32037;50.820;6.494;2024-03-02T11:32:20;10.60;99.90
46309;DHT22;32037;50.820;6.494;2024-03-02T11:34:50;10.50;99.90
46309;DHT22;32037;50.820;6.494;2024-03-02T11:37:21;10.50;99.90
46309;DHT22;32037;50.820;6.494;2024-03-02T11:39:51;10.50;99.90
46309;DHT22;32037;50.820;6.494;2024-03-02T11:42:20;10.50;99.90
46309;DHT22;32037;50.820;6.494;2024-03-02T11:44:56;10.50;99.90
46309;DHT22;32037;50.820;6.494;2024-03-02T11:47:31;10.50;99.90
46309;DHT22;32037;50.820;6.494;2024-03-02T11:50:04;10.50;99.90
46309;DHT22;32037;50.820;6.494;2024-03-02T11:52:36;10.50;99.90
46309;DHT22;32037;50.820;6.494;2024-03-02T11:55:10;10.50;99.90
46309;DHT22;32037;50.820;6.494;2024-03-02T11:57:40;10.50;99.90
46309;DHT22;32037;50.820;6.494;2024-03-02T12:00:17;10.50;99.90
46309;DHT22;32037;50.820;6.494;2024-03-02T12:02:48;10.50;99.90
46309;DHT22;32037;50.820;6.494;2024-03-02T12:05:27;10.50;99.90
46309;DHT22;32037;50.820;6.494;2024-03-02T12:07:57;10.50;99.90
46309;DHT22;32037;50.820;6.494;2024-03-02T12:10:26;10.50;99.90
46309;DHT22;32037;50.820;6.494;2024-03-02T12:12:56;10.50;99.90
46309;DHT22;32037;50.820;6.494;2024-03-02T12:15:28;10.50;99.90
46309;DHT22;32037;50.820;6.494;2024-03-02T12:17:59;10.50;99.90
46309;DHT22;32037;50.820;6.494;2024-03-02T12:20:29;10.40;99.90
46309;DHT22;32037;50.820;6.494;2024-03-02T12:22:59;10.40;99.90
46309;DHT22;32037;50.820;6.494;2024-03-02T12:25:27;10.40;99.90
46309;DHT22;32037;50.820;6.494;2024-03-02T12:27:56;10.40;99.90
46309;DHT22;32037;50.820;6.494;2024-03-02T12:30:27;10.40;99.90
46309;DHT22;32037;50.820;6.494;2024-03-02T12:33:01;10.40;99.90
46309;DHT22;32037;50.820;6.494;2024-03-02T12:35:30;10.40;99.90
46309;DHT22;32037;50.820;6.494;2024-03-02T12:37:59;10.40;99.90
46309;DHT22;32037;50.820;6.494;2024-03-02T12:40:31;10.40;99.90
46309;DHT22;32037;50.820;6.494;2024-03-02T12:43:00;10.40;99.90
46309;DHT22;32037;50.820;6.494;2024-03-02T12:45:28;10.40;99.90
46309;DHT22;32037;50.820;6.494;2024-03-02T12:47:56;10.40;99.90
46309;DHT22;32037;50.820;6.494;2024-03-02T12:50:27;10.40;99.90
46309;DHT22;32037;50.820;6.494;2024-03-02T12:52:56;10.50;99.90
46309;DHT22;32037;50.820;6.494;2024-03-02T12:55:26;10.70;99.90
46309;DHT22;32037;50.820;6.494;2024-03-02T12:57:55;10.90;99.90
46309;DHT22;32037;50.820;6.494;2024-03-02T13:00:26;11.00;99.20
46309;DHT22;32037;50.820;6.494;2024-03-02T13:02:56;11.10;98.20
46309;DHT22;32037;50.820;6.494;2024-03-02T13:05:32;11.10;98.30
46309;DHT22;32037;50.820;6.494;2024-03-02T13:08:00;11.10;98.50
46309;DHT22;32037;50.820;6.494;2024-03-02T13:10:30;11.10;99.20
46309;DHT22;32037;50.820;6.494;2024-03-02T13:13:00;11.10;99.90
46309;DHT22;32037;50.820;6.494;2024-03-02T13:15:30;11.00;99.90
46309;DHT22;32037;50.820;6.494;2024-03-02T13:18:00;10.90;99.90
46309;DHT22;32037;50.820;6.494;2024-03-02T13:20:32;10.80;99.90
46309;DHT22;32037;50.820;6.494;2024-03-02T13:23:00;10.70;99.90
46309;DHT22;32037;50.820;6.494;2024-03-02T13:25:30;10.70;99.90
46309;DHT22;32037;50.820;6.494;2024-03-02T13:28:00;10.60;99.90
46309;DHT22;32037;50.820;6.494;2024-03-02T13:30:30;10.60;99.90
46309;DHT22;32037;50.820;6.494;2024-03-02T13:32:59;10.50;99.90
46309;DHT22;32037;50.820;6.494;2024-03-02T13:35:31;10.50;99.90
46309;DHT22;32037;50.820;6.494;2024-03-02T13:38:01;10.50;99.90
46309;DHT22;32037;50.820;6.494;2024-03-02T13:40:30;10.50;99.90
46309;DHT22;32037;50.820;6.494;2024-03-02T13:43:02;10.40;99.90
46309;DHT22;32037;50.820;6.494;2024-03-02T13:45:34;10.40;99.90
46309;DHT22;32037;50.820;6.494;2024-03-02T13:48:05;10.40;99.90
46309;DHT22;32037;50.820;6.494;2024-03-02T13:50:35;10.40;99.90
46309;DHT22;32037;50.820;6.494;2024-03-02T13:53:04;10.70;99.90
46309;DHT22;32037;50.820;6.494;2024-03-02T13:55:34;10.70;99.90
46309;DHT22;32037;50.820;6.494;2024-03-02T13:58:04;10.70;99.90
46309;DHT22;32037;50.820;6.494;2024-03-02T14:00:34;10.80;99.90
46309;DHT22;32037;50.820;6.494;2024-03-02T14:03:06;10.90;99.90
46309;DHT22;32037;50.820;6.494;2024-03-02T14:05:37;10.90;99.90
46309;DHT22;32037;50.820;6.494;2024-03-02T14:08:06;10.90;99.90
46309;DHT22;32037;50.820;6.494;2024-03-02T14:10:36;11.00;99.90
46309;DHT22;32037;50.820;6.494;2024-03-02T14:13:05;11.00;99.90
46309;DHT22;32037;50.820;6.494;2024-03-02T14:15:34;11.00;99.90
46309;DHT22;32037;50.820;6.494;2024-03-02T14:18:06;11.10;99.90
46309;DHT22;32037;50.820;6.494;2024-03-02T14:20:38;11.20;99.90
46309;DHT22;32037;50.820;6.494;2024-03-02T14:23:08;11.20;99.90
46309;DHT22;32037;50.820;6.494;2024-03-02T14:25:39;11.20;99.90
46309;DHT22;32037;50.820;6.494;2024-03-02T14:28:09;11.20;99.90
46309;DHT22;32037;50.820;6.494;2024-03-02T14:30:59;11.10;99.90
46309;DHT22;32037;50.820;6.494;2024-03-02T14:33:29;11.10;99.90
46309;DHT22;32037;50.820;6.494;2024-03-02T14:36:01;11.10;99.90
46309;DHT22;32037;50.820;6.494;2024-03-02T14:38:34;11.10;99.90
46309;DHT22;32037;50.820;6.494;2024-03-02T14:41:04;11.10;99.90
46309;DHT22;32037;50.820;6.494;2024-03-02T14:43:34;11.10;99.90
46309;DHT22;32037;50.820;6.494;2024-03-02T14:46:05;11.10;99.90
46309;DHT22;32037;50.820;6.494;2024-03-02T14:48:36;11.10;99.90
46309;DHT22;32037;50.820;6.494;2024-03-02T14:51:08;11.10;99.90
46309;DHT22;32037;50.820;6.494;2024-03-02T14:53:38;11.10;99.90
46309;DHT22;32037;50.820;6.494;2024-03-02T14:56:06;11.10;99.90
46309;DHT22;32037;50.820;6.494;2024-03-02T14:58:35;11.10;99.90
46309;DHT22;32037;50.820;6.494;2024-03-02T15:01:04;11.10;99.90
46309;DHT22;32037;50.820;6.494;2024-03-02T15:03:35;11.10;99.90
46309;DHT22;32037;50.820;6.494;2024-03-02T15:06:07;11.10;99.90
46309;DHT22;32037;50.820;6.494;2024-03-02T15:08:36;11.10;99.90
46309;DHT22;32037;50.820;6.494;2024-03-02T15:11:06;11.10;99.90
46309;DHT22;32037;50.820;6.494;2024-03-02T15:13:35;11.10;99.90
46309;DHT22;32037;50.820;6.494;2024-03-02T15:16:04;11.10;99.90
46309;DHT22;32037;50.820;6.494;2024-03-02T15:18:33;11.10;99.90
46309;DHT22;32037;50.820;6.494;2024-03-02T15:21:04;11.10;99.90
46309;DHT22;32037;50.820;6.494;2024-03-02T15:23:36;11.10;99.90
46309;DHT22;32037;50.820;6.494;2024-03-02T15:26:05;11.10;99.90
46309;DHT22;32037;50.820;6.494;2024-03-02T15:28:35;11.10;99.90
46309;DHT22;32037;50.820;6.494;2024-03-02T15:31:03;11.10;99.90
46309;DHT22;32037;50.820;6.494;2024-03-02T15:33:33;11.10;99.90
46309;DHT22;32037;50.820;6.494;2024-03-02T15:36:03;11.00;99.90
46309;DHT22;32037;50.820;6.494;2024-03-02T15:38:37;11.10;99.90
46309;DHT22;32037;50.820;6.494;2024-03-02T15:41:09;11.10;99.90
46309;DHT22;32037;50.820;6.494;2024-03-02T15:43:40;11.10;99.90
46309;DHT22;32037;50.820;6.494;2024-03-02T15:46:10;11.10;99.90
46309;DHT22;32037;50.820;6.494;2024-03-02T15:48:39;11.10;99.90
46309;DHT22;32037;50.820;6.494;2024-03-02T15:51:08;11.10;99.90
46309;DHT22;32037;50.820;6.494;2024-03-02T15:53:38;11.00;99.90
46309;DHT22;32037;50.820;6.494;2024-03-02T15:56:08;11.10;99.90
46309;DHT22;32037;50.820;6.494;2024-03-02T15:58:40;11.00;99.90
46309;DHT22;32037;50.820;6.494;2024-03-02T16:01:11;11.00;99.90